sensor_id;sensor_type;location;lat;lon;timestamp;temperature;humidity
20139;DHT22;10230;51.502;10.800;2023-06-26T06:32:09;23.10;99.90
20139;DHT22;10230;51.502;10.800;2023-06-26T06:34:35;23.20;99.90
20139;DHT22;10230;51.502;10.800;2023-06-26T06:37:02;23.20;99.90
20139;DHT22;10230;51.502;10.800;2023-06-26T06:39:28;23.50;99.90
20139;DHT22;10230;51.502;10.800;2023-06-26T06:41:54;23.50;99.90
20139;DHT22;10230;51.502;10.800;2023-06-26T06:44:19;23.60;99.90
20139;DHT22;10230;51.502;10.800;2023-06-26T06:46:45;23.70;99.90
20139;DHT22;10230;51.502;10.800;2023-06-26T06:49:11;24.00;99.90
20139;DHT22;10230;51.502;10.800;2023-06-26T06:51:36;24.00;99.90
20139;DHT22;10230;51.502;10.800;2023-06-26T06:54:02;24.00;99.90
20139;DHT22;10230;51.502;10.800;2023-06-26T06:56:27;24.30;99.90
20139;DHT22;10230;51.502;10.800;2023-06-26T06:58:53;24.40;99.90
20139;DHT22;10230;51.502;10.800;2023-06-26T07:01:19;24.50;99.90
20139;DHT22;10230;51.502;10.800;2023-06-26T07:03:44;24.60;99.90
20139;DHT22;10230;51.502;10.800;2023-06-26T07:06:10;24.80;99.90
20139;DHT22;10230;51.502;10.800;2023-06-26T07:08:36;24.90;99.90
20139;DHT22;10230;51.502;10.800;2023-06-26T07:11:01;25.10;99.90
20139;DHT22;10230;51.502;10.800;2023-06-26T07:13:28;25.30;99.90
20139;DHT22;10230;51.502;10.800;2023-06-26T07:15:54;25.40;99.90
20139;DHT22;10230;51.502;10.800;2023-06-26T07:18:19;25.60;99.90
20139;DHT22;10230;51.502;10.800;2023-06-26T07:20:45;25.70;99.90
20139;DHT22;10230;51.502;10.800;2023-06-26T07:23:10;25.80;99.90
20139;DHT22;10230;51.502;10.800;2023-06-26T07:25:36;25.90;99.90
20139;DHT22;10230;51.502;10.800;2023-06-26T07:28:02;26.00;99.90
20139;DHT22;10230;51.502;10.800;2023-06-26T07:30:28;26.10;99.90
20139;DHT22;10230;51.502;10.800;2023-06-26T07:32:54;26.20;99.90
20139;DHT22;10230;51.502;10.800;2023-06-26T07:35:19;26.30;99.90
20139;DHT22;10230;51.502;10.800;2023-06-26T07:40:11;26.80;99.90
20139;DHT22;10230;51.502;10.800;2023-06-26T07:42:37;27.00;99.90
20139;DHT22;10230;51.502;10.800;2023-06-26T07:45:04;27.10;99.90
20139;DHT22;10230;51.502;10.800;2023-06-26T07:47:39;27.30;99.90
20139;DHT22;10230;51.502;10.800;2023-06-26T07:50:05;27.70;99.90
20139;DHT22;10230;51.502;10.800;2023-06-26T07:52:31;27.80;99.90
20139;DHT22;10230;51.502;10.800;2023-06-26T07:54:57;28.20;99.90
20139;DHT22;10230;51.502;10.800;2023-06-26T07:57:23;28.60;99.90
20139;DHT22;10230;51.502;10.800;2023-06-26T07:59:50;29.00;99.90
20139;DHT22;10230;51.502;10.800;2023-06-26T08:14:26;35.30;92.50
20139;DHT22;10230;51.502;10.800;2023-06-26T08:29:11;44.40;51.60
20139;DHT22;10230;51.502;10.800;2023-06-26T09:47:30;46.40;28.50
20139;DHT22;10230;51.502;10.800;2023-06-26T09:49:57;45.90;29.90
20139;DHT22;10230;51.502;10.800;2023-06-26T09:52:26;46.40;29.40
20139;DHT22;10230;51.502;10.800;2023-06-26T10:12:28;49.40;27.90
20139;DHT22;10230;51.502;10.800;2023-06-26T11:37:08;40.80;36.80
20139;DHT22;10230;51.502;10.800;2023-06-26T11:39:34;40.70;37.60
20139;DHT22;10230;51.502;10.800;2023-06-26T11:56:54;35.40;44.90
20139;DHT22;10230;51.502;10.800;2023-06-26T12:01:49;34.60;46.70
20139;DHT22;10230;51.502;10.800;2023-06-26T12:04:15;33.40;50.80
20139;DHT22;10230;51.502;10.800;2023-06-26T12:06:53;32.60;54.60
20139;DHT22;10230;51.502;10.800;2023-06-26T12:09:22;32.00;57.40
20139;DHT22;10230;51.502;10.800;2023-06-26T12:16:45;30.00;62.90
20139;DHT22;10230;51.502;10.800;2023-06-26T12:19:11;29.40;65.50
20139;DHT22;10230;51.502;10.800;2023-06-26T12:26:34;27.40;80.00
20139;DHT22;10230;51.502;10.800;2023-06-26T13:40:00;27.50;99.90
20139;DHT22;10230;51.502;10.800;2023-06-26T13:47:20;28.10;99.90
20139;DHT22;10230;51.502;10.800;2023-06-26T13:52:12;28.20;99.90
20139;DHT22;10230;51.502;10.800;2023-06-26T14:14:10;28.90;99.90
20139;DHT22;10230;51.502;10.800;2023-06-26T14:16:35;28.90;99.90
20139;DHT22;10230;51.502;10.800;2023-06-26T14:19:01;28.90;99.90
20139;DHT22;10230;51.502;10.800;2023-06-26T14:21:27;29.00;99.90
20139;DHT22;10230;51.502;10.800;2023-06-26T14:23:54;29.10;99.90
20139;DHT22;10230;51.502;10.800;2023-06-26T14:26:20;28.90;99.90
20139;DHT22;10230;51.502;10.800;2023-06-26T14:28:45;28.70;99.90
20139;DHT22;10230;51.502;10.800;2023-06-26T14:31:11;28.50;99.90
20139;DHT22;10230;51.502;10.800;2023-06-26T14:33:37;28.40;99.90
20139;DHT22;10230;51.502;10.800;2023-06-26T14:36:03;28.40;99.90
20139;DHT22;10230;51.502;10.800;2023-06-26T14:38:28;28.50;99.90
20139;DHT22;10230;51.502;10.800;2023-06-26T14:40:54;28.50;99.90
20139;DHT22;10230;51.502;10.800;2023-06-26T14:43:20;28.60;99.90
20139;DHT22;10230;51.502;10.800;2023-06-26T14:45:46;28.50;99.90
20139;DHT22;10230;51.502;10.800;2023-06-26T14:48:11;28.50;99.90
20139;DHT22;10230;51.502;10.800;2023-06-26T14:50:37;28.60;99.90
20139;DHT22;10230;51.502;10.800;2023-06-26T14:53:03;28.60;99.90
20139;DHT22;10230;51.502;10.800;2023-06-26T14:55:28;28.50;99.90
20139;DHT22;10230;51.502;10.800;2023-06-26T14:57:54;28.50;99.90
20139;DHT22;10230;51.502;10.800;2023-06-26T15:00:20;28.40;99.90
20139;DHT22;10230;51.502;10.800;2023-06-26T15:02:45;28.20;99.90
20139;DHT22;10230;51.502;10.800;2023-06-26T15:05:11;28.10;99.90
20139;DHT22;10230;51.502;10.800;2023-06-26T15:07:37;28.00;99.90
20139;DHT22;10230;51.502;10.800;2023-06-26T15:10:02;28.00;99.90
20139;DHT22;10230;51.502;10.800;2023-06-26T15:12:28;27.90;99.90
20139;DHT22;10230;51.502;10.800;2023-06-26T15:14:54;27.90;99.90
20139;DHT22;10230;51.502;10.800;2023-06-26T15:17:20;28.10;99.90
20139;DHT22;10230;51.502;10.800;2023-06-26T15:19:46;28.20;99.90
20139;DHT22;10230;51.502;10.800;2023-06-26T15:22:11;28.40;99.90
20139;DHT22;10230;51.502;10.800;2023-06-26T15:24:37;28.50;99.90
20139;DHT22;10230;51.502;10.800;2023-06-26T15:27:03;28.60;99.90
20139;DHT22;10230;51.502;10.800;2023-06-26T15:29:29;28.60;99.90
20139;DHT22;10230;51.502;10.800;2023-06-26T15:31:54;28.40;99.90
20139;DHT22;10230;51.502;10.800;2023-06-26T15:34:20;28.20;99.90
20139;DHT22;10230;51.502;10.800;2023-06-26T15:36:46;28.10;99.90
20139;DHT22;10230;51.502;10.800;2023-06-26T15:39:11;27.90;99.90
20139;DHT22;10230;51.502;10.800;2023-06-26T15:41:37;27.70;99.90
20139;DHT22;10230;51.502;10.800;2023-06-26T15:44:03;27.70;99.90
20139;DHT22;10230;51.502;10.800;2023-06-26T15:46:29;27.70;99.90
20139;DHT22;10230;51.502;10.800;2023-06-26T15:48:55;27.60;99.90
20139;DHT22;10230;51.502;10.800;2023-06-26T15:51:21;27.40;99.90
20139;DHT22;10230;51.502;10.800;2023-06-26T15:53:47;27.40;99.90
20139;DHT22;10230;51.502;10.800;2023-06-26T15:56:12;27.30;99.90
20139;DHT22;10230;51.502;10.800;2023-06-26T15:58:39;27.20;99.90
20139;DHT22;10230;51.502;10.800;2023-06-26T16:01:10;27.10;99.90
20139;DHT22;10230;51.502;10.800;2023-06-26T16:03:37;27.00;99.90
20139;DHT22;10230;51.502;10.800;2023-06-26T16:06:03;27.00;99.90
20139;DHT22;10230;51.502;10.800;2023-06-26T16:08:29;26.90;99.90
20139;DHT22;10230;51.502;10.800;2023-06-26T16:10:54;26.90;99.90
20139;DHT22;10230;51.502;10.800;2023-06-26T16:13:20;26.80;99.90
20139;DHT22;10230;51.502;10.800;2023-06-26T16:15:47;26.60;99.90
20139;DHT22;10230;51.502;10.800;2023-06-26T16:18:14;26.60;99.90
20139;DHT22;10230;51.502;10.800;2023-06-26T16:20:40;26.50;99.90
20139;DHT22;10230;51.502;10.800;2023-06-26T16:23:05;26.40;99.90
20139;DHT22;10230;51.502;10.800;2023-06-26T16:25:31;26.30;99.90
20139;DHT22;10230;51.502;10.800;2023-06-26T16:27:57;26.20;99.90
20139;DHT22;10230;51.502;10.800;2023-06-26T16:30:22;26.10;99.90
20139;DHT22;10230;51.502;10.800;2023-06-26T16:32:48;26.00;99.90
20139;DHT22;10230;51.502;10.800;2023-06-26T16:35:14;26.00;99.90
20139;DHT22;10230;51.502;10.800;2023-06-26T16:37:39;25.90;99.90
20139;DHT22;10230;51.502;10.800;2023-06-26T16:40:06;25.90;99.90
20139;DHT22;10230;51.502;10.800;2023-06-26T16:42:31;25.80;99.90
20139;DHT22;10230;51.502;10.800;2023-06-26T16:44:57;25.70;99.90
20139;DHT22;10230;51.502;10.800;2023-06-26T16:47:23;25.70;99.90
20139;DHT22;10230;51.502;10.800;2023-06-26T16:49:48;25.60;99.90
20139;DHT22;10230;51.502;10.800;2023-06-26T16:52:14;25.50;99.90
20139;DHT22;10230;51.502;10.800;2023-06-26T16:54:40;25.50;99.90
20139;DHT22;10230;51.502;10.800;2023-06-26T16:57:05;25.40;99.90
20139;DHT22;10230;51.502;10.800;2023-06-26T16:59:31;25.30;99.90
20139;DHT22;10230;51.502;10.800;2023-06-26T17:01:57;25.10;99.90
20139;DHT22;10230;51.502;10.800;2023-06-26T17:04:28;25.00;99.90
20139;DHT22;10230;51.502;10.800;2023-06-26T17:06:54;25.00;99.90
20139;DHT22;10230;51.502;10.800;2023-06-26T17:09:20;25.00;99.90
20139;DHT22;10230;51.502;10.800;2023-06-26T17:11:46;24.90;99.90
20139;DHT22;10230;51.502;10.800;2023-06-26T17:14:12;24.90;99.90
20139;DHT22;10230;51.502;10.800;2023-06-26T17:16:37;24.80;99.90
20139;DHT22;10230;51.502;10.800;2023-06-26T17:19:03;24.80;99.90
20139;DHT22;10230;51.502;10.800;2023-06-26T17:21:29;24.80;99.90
20139;DHT22;10230;51.502;10.800;2023-06-26T17:23:55;24.70;99.90
20139;DHT22;10230;51.502;10.800;2023-06-26T17:26:20;24.60;99.90
20139;DHT22;10230;51.502;10.800;2023-06-26T17:28:46;24.50;99.90
20139;DHT22;10230;51.502;10.800;2023-06-26T17:31:12;24.40;99.90
20139;DHT22;10230;51.502;10.800;2023-06-26T17:33:37;24.40;99.90
20139;DHT22;10230;51.502;10.800;2023-06-26T17:36:03;24.40;99.90
20139;DHT22;10230;51.502;10.800;2023-06-26T17:38:30;24.30;99.90
20139;DHT22;10230;51.502;10.800;2023-06-26T17:40:56;24.30;99.90
20139;DHT22;10230;51.502;10.800;2023-06-26T17:43:22;24.30;99.90
20139;DHT22;10230;51.502;10.800;2023-06-26T17:45:48;24.20;99.90
20139;DHT22;10230;51.502;10.800;2023-06-26T17:48:13;24.10;99.90
20139;DHT22;10230;51.502;10.800;2023-06-26T17:50:39;24.10;99.90
20139;DHT22;10230;51.502;10.800;2023-06-26T17:53:05;24.00;99.90
20139;DHT22;10230;51.502;10.800;2023-06-26T17:55:32;24.30;99.90
20139;DHT22;10230;51.502;10.800;2023-06-26T17:57:58;23.80;99.90
20139;DHT22;10230;51.502;10.800;2023-06-26T18:00:23;23.80;99.90
20139;DHT22;10230;51.502;10.800;2023-06-26T18:02:49;23.70;99.90
20139;DHT22;10230;51.502;10.800;2023-06-26T18:05:15;23.70;99.90
20139;DHT22;10230;51.502;10.800;2023-06-26T18:07:42;23.60;99.90
20139;DHT22;10230;51.502;10.800;2023-06-26T18:10:08;23.60;99.90
20139;DHT22;10230;51.502;10.800;2023-06-26T18:12:34;23.50;99.90
20139;DHT22;10230;51.502;10.800;2023-06-26T18:15:00;23.50;99.90
20139;DHT22;10230;51.502;10.800;2023-06-26T18:17:28;23.40;99.90
20139;DHT22;10230;51.502;10.800;2023-06-26T18:19:53;23.40;99.90
20139;DHT22;10230;51.502;10.800;2023-06-26T18:24:46;23.30;99.90
20139;DHT22;10230;51.502;10.800;2023-06-26T18:27:11;23.20;99.90
20139;DHT22;10230;51.502;10.800;2023-06-26T18:29:37;23.20;99.90
20139;DHT22;10230;51.502;10.800;2023-06-26T18:32:03;23.10;99.90
20139;DHT22;10230;51.502;10.800;2023-06-26T18:34:29;23.00;99.90
20139;DHT22;10230;51.502;10.800;2023-06-26T18:36:55;23.00;99.90
20139;DHT22;10230;51.502;10.800;2023-06-26T18:39:25;22.90;99.90
